Terminal Aerodrome Forecast
Issued by NWS Buffalo, NY

Current Version | Previous Version | Text Only | Print | Product List | Glossary On
Versions: 1 2 3 4 5 6 7 8 9 10 11 12 13 14 15 16 17 18 19 20 21 22 23 24 25 26 27 28 29 30 31 32 33
000
FTUS41 KBUF 101500 AAA
TAFBUF
TAF AMD
KBUF 101511Z 1015/1112 08004KT P6SM FEW060 FEW250
     FM101800 VRB03KT P6SM FEW060 SCT250
     FM110000 04005KT P6SM FEW250
     FM110600 11004KT P6SM SKC
     FM111100 13004KT P6SM FEW250=

USA.gov is the U.S. government's official web portal to all federal, state and local government web resources and services.